This is the latest recevied weather packets stored in our database for station/object M7PDA-1. If no packets are shown the sender has not sent any weather packets the latest 10 day(s).
| Time | Temp. | Humidity | Pressure | Rain* | Wind** | Luminosity | Snow |
|---|---|---|---|---|---|---|---|
| 1787949016 | 16.67° C | 67% | 1007.8 hPa | - | - | - | - |
| 1787948115 | 16.67° C | 67% | 1007.8 hPa | - | - | - | - |
| 1787947214 | 16.67° C | 67% | 1007.8 hPa | - | - | - | - |
| 1787946313 | 16.67° C | 67% | 1007.9 hPa | - | - | - | - |
| 1787945413 | 16.67° C | 67% | 1007.8 hPa | - | - | - | - |
| 1787944512 | 16.67° C | 66% | 1007.6 hPa | - | - | - | - |
| 1787943611 | 16.67° C | 66% | 1007.5 hPa | - | - | - | - |
| 1787942710 | 16.67° C | 65% | 1007.5 hPa | - | - | - | - |
| 1787941809 | 17.22° C | 65% | 1007.4 hPa | - | - | - | - |
| 1787940908 | 17.22° C | 64% | 1007.3 hPa | - | - | - | - |
| 1787940008 | 17.78° C | 64% | 1007.1 hPa | - | - | - | - |
| 1787939107 | 17.78° C | 63% | 1007.2 hPa | - | - | - | - |
| 1787938206 | 18.33° C | 62% | 1007 hPa | - | - | - | - |
| 1787937305 | 18.33° C | 61% | 1006.8 hPa | - | - | - | - |
| 1787936405 | 18.89° C | 61% | 1006.7 hPa | - | - | - | - |
| 1787934603 | 18.33° C | 63% | 1006.9 hPa | - | - | - | - |
| 1787933702 | 18.89° C | 63% | 1006.9 hPa | - | - | - | - |
| 1787932801 | 18.33° C | 64% | 1007.1 hPa | - | - | - | - |
| 1787931901 | 17.78° C | 64% | 1007 hPa | - | - | - | - |
| 1787931000 | 17.78° C | 64% | 1007.1 hPa | - | - | - | - |
| 1787930099 | 17.78° C | 64% | 1006.9 hPa | - | - | - | - |
| 1787929198 | 17.78° C | 63% | 1007.1 hPa | - | - | - | - |
| 1787928298 | 18.89° C | 62% | 1006.9 hPa | - | - | - | - |
| 1787927397 | 20° C | 61% | 1006.8 hPa | - | - | - | - |
| 1787926496 | 19.44° C | 62% | 1006.8 hPa | - | - | - | - |
* Rain since midnight (hover to see other rain measurements)
** Current wind speed in m/s (hover to see current wind gust speed)